createdAt,value
2023-03-16T00:00:09.285Z,16.60
2023-03-16T00:01:09.248Z,12.60
2023-03-16T00:02:09.265Z,18.40
2023-03-16T00:03:09.157Z,9.90
2023-03-16T00:04:09.033Z,15.40
2023-03-16T00:05:08.995Z,9.70
2023-03-16T00:06:08.931Z,10.40
2023-03-16T00:07:08.865Z,10.00
2023-03-16T00:08:08.781Z,24.90
2023-03-16T00:09:08.772Z,9.30
2023-03-16T00:10:08.678Z,12.40
2023-03-16T00:11:08.638Z,26.20
2023-03-16T00:12:08.556Z,11.30
2023-03-16T00:13:08.517Z,11.90
2023-03-16T00:14:08.450Z,13.20
2023-03-16T00:15:08.397Z,13.90
2023-03-16T00:16:08.347Z,16.70
2023-03-16T00:17:08.237Z,14.70
2023-03-16T00:18:08.194Z,18.30
2023-03-16T00:19:08.112Z,16.70
2023-03-16T00:20:08.041Z,10.40
2023-03-16T00:21:08.012Z,13.00
2023-03-16T00:22:07.914Z,8.40
2023-03-16T00:23:07.849Z,8.40
2023-03-16T00:24:07.788Z,10.80
2023-03-16T00:25:07.827Z,11.20
2023-03-16T00:26:07.679Z,10.00
2023-03-16T00:27:07.621Z,14.40
2023-03-16T00:28:07.539Z,15.50
2023-03-16T00:29:07.449Z,10.90
2023-03-16T00:30:07.437Z,19.30
2023-03-16T00:31:07.368Z,9.90
2023-03-16T00:32:07.286Z,14.20
2023-03-16T00:33:07.318Z,12.90
2023-03-16T00:34:07.155Z,12.00
2023-03-16T00:35:09.411Z,8.50
2023-03-16T00:36:07.072Z,8.90
2023-03-16T00:37:06.990Z,15.00
2023-03-16T00:38:06.872Z,17.20
2023-03-16T00:39:06.968Z,13.60
2023-03-16T00:40:06.774Z,10.30
2023-03-16T00:41:06.718Z,10.70
2023-03-16T00:42:06.617Z,8.70
2023-03-16T00:43:06.578Z,19.60
2023-03-16T00:44:06.530Z,8.70
2023-03-16T00:45:06.462Z,9.10
2023-03-16T00:46:06.523Z,13.50
2023-03-16T00:47:06.354Z,14.50
2023-03-16T00:48:06.258Z,17.10
2023-03-16T00:49:06.210Z,12.10
2023-03-16T00:50:06.136Z,17.80
2023-03-16T00:51:27.089Z,10.10
2023-03-16T00:52:06.012Z,19.80
2023-03-16T00:53:05.937Z,12.80
2023-03-16T00:54:05.852Z,18.90
2023-03-16T00:55:05.844Z,12.90
2023-03-16T00:56:05.756Z,15.40
2023-03-16T00:57:05.706Z,15.30
2023-03-16T00:58:05.650Z,20.20
2023-03-16T00:59:05.562Z,15.40
2023-03-16T01:00:05.498Z,17.70
2023-03-16T01:01:05.495Z,10.40
2023-03-16T01:02:05.350Z,17.90
2023-03-16T01:03:05.434Z,18.30
2023-03-16T01:04:05.220Z,21.90
2023-03-16T01:05:05.157Z,22.50
2023-03-16T01:06:05.116Z,17.70
2023-03-16T01:07:05.054Z,14.30
2023-03-16T01:08:04.972Z,21.10
2023-03-16T01:09:25.913Z,17.30
2023-03-16T01:10:04.918Z,13.80
2023-03-16T01:11:04.840Z,21.20
2023-03-16T01:12:04.739Z,20.30
2023-03-16T01:13:04.705Z,19.00
2023-03-16T01:14:04.614Z,17.80
2023-03-16T01:15:04.560Z,15.70
2023-03-16T01:16:04.489Z,13.80
2023-03-16T01:17:04.556Z,18.20
2023-03-16T01:18:04.336Z,15.90
2023-03-16T01:19:04.298Z,25.90
2023-03-16T01:20:04.260Z,14.90
2023-03-16T01:21:04.155Z,13.10
2023-03-16T01:22:04.099Z,10.20
2023-03-16T01:23:04.065Z,13.50
2023-03-16T01:24:04.010Z,11.50
2023-03-16T01:25:03.915Z,18.10
2023-03-16T01:26:03.886Z,14.90
2023-03-16T01:27:03.799Z,15.20
2023-03-16T01:28:03.768Z,15.00
2023-03-16T01:29:03.704Z,11.20
2023-03-16T01:30:03.579Z,20.60
2023-03-16T01:31:03.598Z,11.80
2023-03-16T01:32:03.479Z,11.70
2023-03-16T01:33:03.476Z,12.90
2023-03-16T01:34:03.349Z,11.20
2023-03-16T01:35:03.269Z,14.20
2023-03-16T01:36:03.253Z,9.20
2023-03-16T01:37:03.166Z,13.60
2023-03-16T01:38:03.078Z,8.60
2023-03-16T01:39:03.290Z,12.80
2023-03-16T01:40:02.966Z,8.90
2023-03-16T01:41:02.952Z,11.10
2023-03-16T01:42:02.872Z,8.00
2023-03-16T01:43:02.815Z,9.70
2023-03-16T01:44:02.720Z,12.00
2023-03-16T01:45:23.659Z,12.00
2023-03-16T01:46:02.688Z,10.80
2023-03-16T01:47:02.520Z,8.60
2023-03-16T01:48:02.459Z,8.40
2023-03-16T01:49:02.425Z,11.50
2023-03-16T01:50:02.332Z,9.40
2023-03-16T01:51:04.047Z,8.10
2023-03-16T01:52:02.180Z,14.30
2023-03-16T01:53:02.152Z,12.30
2023-03-16T01:54:02.103Z,8.90
2023-03-16T01:55:01.994Z,16.10
2023-03-16T01:56:01.953Z,7.50
2023-03-16T01:57:01.910Z,8.40
2023-03-16T01:58:01.825Z,13.20
2023-03-16T01:59:01.762Z,10.20
2023-03-16T02:00:01.702Z,11.00
2023-03-16T02:01:01.746Z,11.20
2023-03-16T02:02:01.607Z,7.60
2023-03-16T02:03:22.545Z,13.70
2023-03-16T02:04:01.472Z,14.50
2023-03-16T02:05:01.357Z,12.70
2023-03-16T02:06:01.342Z,12.30
2023-03-16T02:07:01.229Z,19.60
2023-03-16T02:08:01.203Z,7.70
2023-03-16T02:09:01.148Z,8.00
2023-03-16T02:10:01.043Z,21.70
2023-03-16T02:11:01.014Z,10.10
2023-03-16T02:12:00.936Z,7.60
2023-03-16T02:13:00.868Z,12.50
2023-03-16T02:14:00.792Z,12.20
2023-03-16T02:15:00.771Z,13.00
2023-03-16T02:16:00.792Z,8.70
2023-03-16T02:17:00.651Z,22.20
2023-03-16T02:18:00.562Z,7.70
2023-03-16T02:19:00.499Z,9.70
2023-03-16T02:20:00.440Z,9.20
2023-03-16T02:22:39.379Z,7.90
2023-03-16T02:23:40.297Z,8.90
2023-03-16T02:24:40.239Z,14.00
2023-03-16T02:25:40.176Z,13.90
2023-03-16T02:26:40.120Z,9.70
2023-03-16T02:27:40.085Z,16.10
2023-03-16T02:28:40.036Z,18.10
2023-03-16T02:29:39.945Z,14.30
2023-03-16T02:30:40.002Z,15.80
2023-03-16T02:31:39.817Z,13.20
2023-03-16T02:32:39.748Z,18.20
2023-03-16T02:33:39.684Z,19.00
2023-03-16T02:34:39.627Z,10.30
2023-03-16T02:35:39.615Z,11.30
2023-03-16T02:36:39.515Z,15.50
2023-03-16T02:37:39.452Z,8.70
2023-03-16T02:38:39.398Z,11.90
2023-03-16T02:40:00.314Z,11.00
2023-03-16T02:40:39.261Z,11.40
2023-03-16T02:41:39.182Z,11.40
2023-03-16T02:42:39.094Z,11.60
2023-03-16T02:43:39.054Z,14.50
2023-03-16T02:44:38.992Z,8.50
2023-03-16T02:45:38.943Z,16.60
2023-03-16T02:46:38.935Z,12.60
2023-03-16T02:47:38.807Z,8.50
2023-03-16T02:48:38.740Z,13.70
2023-03-16T02:49:38.679Z,13.00
2023-03-16T02:50:38.648Z,14.50
2023-03-16T02:51:38.576Z,15.10
2023-03-16T02:52:38.490Z,22.30
2023-03-16T02:53:38.447Z,11.40
2023-03-16T02:54:38.368Z,8.50
2023-03-16T02:55:38.330Z,8.90
2023-03-16T02:56:38.278Z,14.50
2023-03-16T02:59:17.187Z,7.90
2023-03-16T03:00:18.151Z,10.60
2023-03-16T03:01:18.081Z,7.70
2023-03-16T03:02:18.011Z,17.00
2023-03-16T03:03:18.033Z,13.40
2023-03-16T03:04:17.834Z,15.70
2023-03-16T03:05:17.795Z,7.70
2023-03-16T03:06:17.774Z,9.60
2023-03-16T03:07:17.698Z,14.90
2023-03-16T03:08:17.584Z,12.90
2023-03-16T03:09:17.565Z,9.90
2023-03-16T03:10:17.460Z,9.90
2023-03-16T03:11:17.418Z,10.00
2023-03-16T03:12:17.391Z,11.30
2023-03-16T03:13:17.322Z,7.60
2023-03-16T03:14:17.240Z,7.90
2023-03-16T03:15:38.148Z,12.10
2023-03-16T03:16:17.119Z,11.70
2023-03-16T03:17:17.081Z,7.80
2023-03-16T03:18:16.997Z,16.90
2023-03-16T03:19:16.945Z,16.10
2023-03-16T03:20:16.916Z,10.00
2023-03-16T03:21:16.836Z,8.10
2023-03-16T03:22:16.721Z,14.40
2023-03-16T03:23:16.638Z,9.80
2023-03-16T03:24:16.571Z,7.50
2023-03-16T03:25:16.505Z,11.40
2023-03-16T03:26:16.507Z,7.90
2023-03-16T03:27:16.431Z,15.00
2023-03-16T03:28:16.372Z,10.00
2023-03-16T03:29:16.359Z,13.50
2023-03-16T03:30:16.217Z,10.50
2023-03-16T03:31:16.208Z,8.40
2023-03-16T03:32:16.128Z,13.70
2023-03-16T03:33:37.051Z,10.80
2023-03-16T03:34:15.964Z,13.40
2023-03-16T03:35:15.915Z,10.00
2023-03-16T03:36:15.870Z,11.00
2023-03-16T03:37:15.779Z,14.20
2023-03-16T03:38:15.717Z,11.70
2023-03-16T03:39:15.684Z,10.00
2023-03-16T03:40:15.616Z,8.90
2023-03-16T03:41:15.497Z,14.50
2023-03-16T03:42:15.457Z,12.70
2023-03-16T03:43:15.426Z,14.30
2023-03-16T03:44:15.373Z,13.60
2023-03-16T03:45:15.627Z,14.10
2023-03-16T03:46:15.400Z,9.00
2023-03-16T03:47:15.173Z,15.50
2023-03-16T03:48:15.106Z,14.50
2023-03-16T03:49:15.045Z,9.60
2023-03-16T03:50:14.961Z,9.90
2023-03-16T03:51:35.905Z,12.40
2023-03-16T03:52:14.826Z,17.00
2023-03-16T03:53:14.739Z,22.00
2023-03-16T03:54:14.690Z,12.70
2023-03-16T03:55:14.660Z,17.10
2023-03-16T03:56:14.554Z,10.00
2023-03-16T03:57:14.500Z,11.30
2023-03-16T03:58:14.421Z,12.40
2023-03-16T03:59:14.386Z,21.70
2023-03-16T04:00:14.296Z,9.80
2023-03-16T04:01:14.241Z,10.70
2023-03-16T04:02:14.402Z,16.20
2023-03-16T04:03:14.296Z,9.60
2023-03-16T04:04:14.070Z,10.10
2023-03-16T04:05:14.037Z,31.40
2023-03-16T04:06:13.947Z,16.40
2023-03-16T04:07:13.855Z,11.10
2023-03-16T04:08:13.795Z,18.20
2023-03-16T04:09:13.777Z,9.60
2023-03-16T04:10:13.666Z,11.90
2023-03-16T04:11:13.630Z,11.80
2023-03-16T04:12:13.562Z,13.90
2023-03-16T04:13:13.527Z,16.50
2023-03-16T04:14:13.440Z,10.50
2023-03-16T04:15:13.397Z,12.20
2023-03-16T04:16:13.360Z,10.60
2023-03-16T04:17:13.247Z,14.50
2023-03-16T04:18:13.219Z,12.80
2023-03-16T04:19:13.118Z,14.10
2023-03-16T04:20:13.032Z,18.70
2023-03-16T04:21:12.992Z,12.90
2023-03-16T04:22:12.923Z,13.20
2023-03-16T04:23:12.839Z,20.20
2023-03-16T04:24:12.776Z,17.80
2023-03-16T04:25:12.767Z,13.90
2023-03-16T04:26:12.677Z,19.50
2023-03-16T04:27:33.572Z,11.50
2023-03-16T04:28:12.574Z,18.00
2023-03-16T04:29:12.522Z,24.20
2023-03-16T04:30:12.446Z,9.40
2023-03-16T04:31:12.420Z,11.80
2023-03-16T04:32:12.270Z,15.30
2023-03-16T04:33:12.292Z,11.50
2023-03-16T04:34:12.180Z,11.50
2023-03-16T04:35:12.133Z,9.30
2023-03-16T04:36:12.130Z,17.70
2023-03-16T04:37:11.951Z,15.60
2023-03-16T04:38:11.945Z,13.70
2023-03-16T04:39:11.846Z,15.40
2023-03-16T04:40:11.789Z,11.30
2023-03-16T04:41:11.723Z,15.40
2023-03-16T04:42:11.665Z,17.10
2023-03-16T04:43:11.631Z,10.60
2023-03-16T04:44:11.510Z,11.20
2023-03-16T04:45:11.513Z,12.20
2023-03-16T04:46:11.477Z,12.00
2023-03-16T04:47:11.344Z,16.80
2023-03-16T04:48:11.259Z,11.20
2023-03-16T04:49:11.246Z,15.70
2023-03-16T04:50:11.195Z,19.60
2023-03-16T04:51:11.144Z,9.20
2023-03-16T04:52:11.070Z,9.30
2023-03-16T04:53:10.968Z,12.80
2023-03-16T04:54:10.909Z,20.30
2023-03-16T04:55:10.845Z,16.50
2023-03-16T04:56:10.751Z,17.60
2023-03-16T04:57:10.708Z,10.20
2023-03-16T04:58:10.650Z,11.80
2023-03-16T04:59:10.594Z,11.50
2023-03-16T05:00:10.525Z,13.90
2023-03-16T05:01:10.449Z,16.20
2023-03-16T05:02:10.398Z,12.70
2023-03-16T05:03:10.285Z,14.20
2023-03-16T05:04:14.976Z,17.10
2023-03-16T05:05:10.300Z,16.80
2023-03-16T05:06:10.162Z,20.80
2023-03-16T05:07:10.087Z,10.30
2023-03-16T05:08:10.034Z,14.50
2023-03-16T05:09:09.906Z,16.70
2023-03-16T05:10:09.906Z,16.40
2023-03-16T05:11:09.787Z,15.90
2023-03-16T05:12:09.689Z,17.90
2023-03-16T05:13:09.661Z,10.30
2023-03-16T05:14:09.589Z,16.50
2023-03-16T05:15:09.511Z,17.80
2023-03-16T05:16:09.522Z,15.20
2023-03-16T05:17:09.401Z,21.00
2023-03-16T05:18:09.307Z,13.90
2023-03-16T05:19:09.267Z,14.50
2023-03-16T05:20:09.239Z,15.70
2023-03-16T05:22:18.340Z,11.50
2023-03-16T05:23:19.266Z,10.90
2023-03-16T05:24:19.231Z,11.80
2023-03-16T05:25:19.171Z,14.40
2023-03-16T05:26:19.074Z,18.40
2023-03-16T05:27:19.005Z,14.80
2023-03-16T05:28:18.950Z,19.40
2023-03-16T05:29:18.916Z,13.00
2023-03-16T05:30:18.842Z,10.10
2023-03-16T05:31:18.778Z,12.90
2023-03-16T05:32:18.717Z,13.40
2023-03-16T05:33:18.648Z,10.40
2023-03-16T05:34:18.569Z,20.70
2023-03-16T05:35:18.533Z,14.50
2023-03-16T05:36:18.443Z,13.90
2023-03-16T05:37:18.378Z,15.80
2023-03-16T05:38:18.340Z,21.10
2023-03-16T05:39:18.275Z,13.70
2023-03-16T05:40:18.212Z,17.30
2023-03-16T05:41:18.159Z,11.20
2023-03-16T05:42:18.066Z,20.30
2023-03-16T05:43:17.998Z,24.80
2023-03-16T05:44:17.916Z,15.80
2023-03-16T05:45:17.889Z,19.20
2023-03-16T05:46:20.279Z,11.10
2023-03-16T05:47:17.749Z,14.90
2023-03-16T05:48:17.719Z,21.10
2023-03-16T05:49:17.600Z,17.30
2023-03-16T05:50:17.611Z,14.40
2023-03-16T05:51:17.595Z,15.90
2023-03-16T05:52:17.411Z,14.90
2023-03-16T05:53:17.472Z,12.50
2023-03-16T05:54:17.312Z,17.60
2023-03-16T05:55:17.244Z,12.60
2023-03-16T05:56:17.150Z,17.60
2023-03-16T05:57:17.109Z,16.00
2023-03-16T05:58:17.083Z,11.10
2023-03-16T05:59:16.987Z,11.00
2023-03-16T06:00:16.999Z,14.50
2023-03-16T06:01:16.888Z,17.90
2023-03-16T06:02:16.821Z,18.90
2023-03-16T06:03:16.873Z,10.70
2023-03-16T06:04:16.731Z,16.60
2023-03-16T06:05:16.610Z,15.60
2023-03-16T06:06:16.556Z,10.30
2023-03-16T06:07:16.493Z,15.80
2023-03-16T06:08:16.421Z,20.00
2023-03-16T06:09:16.395Z,14.20
2023-03-16T06:10:16.303Z,16.00
2023-03-16T06:11:16.236Z,18.60
2023-03-16T06:12:16.187Z,11.00
2023-03-16T06:13:16.133Z,9.00
2023-03-16T06:14:16.046Z,9.30
2023-03-16T06:15:16.002Z,12.40
2023-03-16T06:16:16.041Z,11.90
2023-03-16T06:17:15.827Z,9.50
2023-03-16T06:18:15.962Z,16.40
2023-03-16T06:19:15.708Z,15.00
2023-03-16T06:20:15.634Z,10.40
2023-03-16T06:21:15.614Z,9.90
2023-03-16T06:22:15.529Z,10.80
2023-03-16T06:23:15.480Z,11.30
2023-03-16T06:24:15.432Z,8.40
2023-03-16T06:25:15.323Z,21.70
2023-03-16T06:26:15.282Z,8.20
2023-03-16T06:27:15.216Z,9.10
2023-03-16T06:28:15.177Z,12.70
2023-03-16T06:29:15.118Z,8.90
2023-03-16T06:30:15.022Z,10.30
2023-03-16T06:31:15.062Z,12.10
2023-03-16T06:32:14.889Z,14.90
2023-03-16T06:33:14.860Z,11.00
2023-03-16T06:34:14.756Z,11.70
2023-03-16T06:35:14.694Z,8.90
2023-03-16T06:36:14.745Z,14.50
2023-03-16T06:37:14.707Z,17.70
2023-03-16T06:38:14.522Z,11.10
2023-03-16T06:39:14.541Z,15.40
2023-03-16T06:40:14.398Z,9.90
2023-03-16T06:41:14.345Z,12.00
2023-03-16T06:42:14.274Z,14.80
2023-03-16T06:43:14.234Z,15.40
2023-03-16T06:44:14.168Z,10.70
2023-03-16T06:45:14.079Z,18.80
2023-03-16T06:46:14.057Z,8.00
2023-03-16T06:47:14.606Z,12.90
2023-03-16T06:48:14.047Z,9.10
2023-03-16T06:49:13.825Z,21.50
2023-03-16T06:50:13.790Z,10.60
2023-03-16T06:52:22.985Z,13.00
2023-03-16T06:53:23.834Z,12.60
2023-03-16T06:54:23.739Z,12.90
2023-03-16T06:55:23.693Z,21.70
2023-03-16T06:56:23.689Z,15.00
2023-03-16T06:57:25.018Z,10.50
2023-03-16T06:58:26.381Z,9.90
2023-03-16T06:59:26.865Z,11.60
2023-03-16T07:00:24.530Z,14.60
2023-03-16T07:01:25.400Z,22.20
2023-03-16T07:02:23.242Z,10.90
2023-03-16T07:03:23.431Z,13.90
2023-03-16T07:04:23.184Z,19.50
2023-03-16T07:05:23.046Z,14.00
2023-03-16T07:06:22.971Z,9.20
2023-03-16T07:07:23.033Z,11.10
2023-03-16T07:08:22.879Z,14.70
2023-03-16T07:09:43.826Z,12.90
2023-03-16T07:10:22.712Z,12.10
2023-03-16T07:11:22.646Z,10.20
2023-03-16T07:12:22.579Z,12.30
2023-03-16T07:13:22.632Z,9.50
2023-03-16T07:14:22.522Z,9.90
2023-03-16T07:15:22.401Z,18.60
2023-03-16T07:16:22.479Z,9.90
2023-03-16T07:17:22.557Z,10.00
2023-03-16T07:18:22.437Z,17.50
2023-03-16T07:19:22.188Z,15.10
2023-03-16T07:20:23.678Z,20.70
2023-03-16T07:21:22.352Z,8.30
2023-03-16T07:22:22.242Z,8.20
2023-03-16T07:23:21.897Z,8.80
2023-03-16T07:24:21.809Z,11.40
2023-03-16T07:25:21.753Z,8.80
2023-03-16T07:26:21.863Z,8.30
2023-03-16T07:27:43.805Z,8.10
2023-03-16T07:28:21.659Z,7.10
2023-03-16T07:29:21.551Z,7.40
2023-03-16T07:30:21.443Z,10.50
2023-03-16T07:31:42.393Z,7.40
2023-03-16T07:32:21.356Z,10.30
2023-03-16T07:33:21.282Z,16.10
2023-03-16T07:34:21.260Z,6.90
2023-03-16T07:35:21.140Z,9.60
2023-03-16T07:36:21.147Z,7.90
2023-03-16T07:37:25.294Z,9.00
2023-03-16T07:38:20.990Z,8.20
2023-03-16T07:39:20.954Z,11.30
2023-03-16T07:40:20.928Z,8.50
2023-03-16T07:41:20.741Z,7.40
2023-03-16T07:42:20.743Z,8.60
2023-03-16T07:43:20.664Z,8.50
2023-03-16T07:44:20.751Z,10.20
2023-03-16T07:45:20.521Z,9.50
2023-03-16T07:46:20.522Z,13.70
2023-03-16T07:47:20.382Z,6.90
2023-03-16T07:48:20.319Z,7.70
2023-03-16T07:49:20.264Z,6.40
2023-03-16T07:50:20.236Z,15.60
2023-03-16T07:51:20.144Z,11.80
2023-03-16T07:52:20.077Z,13.40
2023-03-16T07:53:20.011Z,11.30
2023-03-16T07:54:19.935Z,12.10
2023-03-16T07:55:19.915Z,11.30
2023-03-16T07:56:19.824Z,7.90
2023-03-16T07:57:21.215Z,7.50
2023-03-16T07:58:19.670Z,8.30
2023-03-16T07:59:20.947Z,6.70
2023-03-16T08:00:19.566Z,6.50
2023-03-16T08:01:19.502Z,8.90
2023-03-16T08:02:19.527Z,7.30
2023-03-16T08:03:40.414Z,9.40
2023-03-16T08:04:19.342Z,8.70
2023-03-16T08:05:19.251Z,7.60
2023-03-16T08:06:19.191Z,6.60
2023-03-16T08:07:19.128Z,6.50
2023-03-16T08:08:19.099Z,8.20
2023-03-16T08:09:19.046Z,6.60
2023-03-16T08:10:18.911Z,8.60
2023-03-16T08:11:18.849Z,10.10
2023-03-16T08:12:18.790Z,10.00
2023-03-16T08:13:18.755Z,9.20
2023-03-16T08:14:18.717Z,7.70
2023-03-16T08:15:18.602Z,11.90
2023-03-16T08:16:20.838Z,7.00
2023-03-16T08:17:18.528Z,7.50
2023-03-16T08:18:18.445Z,9.50
2023-03-16T08:19:18.408Z,11.30
2023-03-16T08:20:18.359Z,8.30
2023-03-16T08:22:27.409Z,6.90
2023-03-16T08:23:29.959Z,6.80
2023-03-16T08:24:30.016Z,7.70
2023-03-16T08:25:28.197Z,9.70
2023-03-16T08:26:28.177Z,7.40
2023-03-16T08:27:28.128Z,6.10
2023-03-16T08:28:28.080Z,9.20
2023-03-16T08:29:28.060Z,10.90
2023-03-16T08:30:28.529Z,10.40
2023-03-16T08:31:27.915Z,8.20
2023-03-16T08:32:28.053Z,6.10
2023-03-16T08:33:27.764Z,7.40
2023-03-16T08:34:27.683Z,7.40
2023-03-16T08:35:27.678Z,8.80
2023-03-16T08:36:27.538Z,12.00
2023-03-16T08:37:27.456Z,5.70
2023-03-16T08:38:27.451Z,8.60
2023-03-16T08:39:27.348Z,6.50
2023-03-16T08:40:27.811Z,7.80
2023-03-16T08:41:27.259Z,14.50
2023-03-16T08:42:27.228Z,7.00
2023-03-16T08:43:27.109Z,7.20
2023-03-16T08:44:27.042Z,6.00
2023-03-16T08:45:27.052Z,7.30
2023-03-16T08:46:26.975Z,7.00
2023-03-16T08:47:26.862Z,11.70
2023-03-16T08:48:26.826Z,5.70
2023-03-16T08:49:26.700Z,10.80
2023-03-16T08:50:27.019Z,13.80
2023-03-16T08:51:26.623Z,6.00
2023-03-16T08:52:26.580Z,6.10
2023-03-16T08:53:26.492Z,5.90
2023-03-16T08:54:26.427Z,5.40
2023-03-16T08:55:26.406Z,5.50
2023-03-16T08:56:26.289Z,11.50
2023-03-16T08:59:05.133Z,7.40
2023-03-16T09:00:06.098Z,8.40
2023-03-16T09:01:05.982Z,5.50
2023-03-16T09:02:05.990Z,5.50
2023-03-16T09:03:05.887Z,5.40
2023-03-16T09:04:05.869Z,5.40
2023-03-16T09:05:05.786Z,6.00
2023-03-16T09:06:05.675Z,5.80
2023-03-16T09:07:09.261Z,6.90
2023-03-16T09:08:05.624Z,5.70
2023-03-16T09:09:05.571Z,5.60
2023-03-16T09:10:05.444Z,6.20
2023-03-16T09:11:05.424Z,8.90
2023-03-16T09:12:05.356Z,5.60
2023-03-16T09:13:05.244Z,6.40
2023-03-16T09:14:05.228Z,6.10
2023-03-16T09:15:05.164Z,7.90
2023-03-16T09:16:05.091Z,4.70
2023-03-16T09:17:04.983Z,5.40
2023-03-16T09:18:04.947Z,5.50
2023-03-16T09:19:04.912Z,4.90
2023-03-16T09:20:15.363Z,4.70
2023-03-16T09:21:04.815Z,6.00
2023-03-16T09:22:04.705Z,5.90
2023-03-16T09:23:04.660Z,5.20
2023-03-16T09:24:04.585Z,5.50
2023-03-16T09:25:04.507Z,5.20
2023-03-16T09:26:04.424Z,5.50
2023-03-16T09:27:04.462Z,9.10
2023-03-16T09:28:04.331Z,5.20
2023-03-16T09:29:04.253Z,4.20
2023-03-16T09:30:04.178Z,6.20
2023-03-16T09:31:04.200Z,5.00
2023-03-16T09:32:04.070Z,4.80
2023-03-16T09:33:04.121Z,7.90
2023-03-16T09:34:03.947Z,8.70
2023-03-16T09:35:03.884Z,4.20
2023-03-16T09:36:03.895Z,4.60
2023-03-16T09:37:03.743Z,4.10
2023-03-16T09:38:06.351Z,4.80
2023-03-16T09:39:03.694Z,4.80
2023-03-16T09:40:10.390Z,4.40
2023-03-16T09:41:03.528Z,4.20
2023-03-16T09:42:03.449Z,4.90
2023-03-16T09:43:03.426Z,4.60
2023-03-16T09:44:03.336Z,4.60
2023-03-16T09:45:03.281Z,4.30
2023-03-16T09:46:03.229Z,4.70
2023-03-16T09:47:03.136Z,4.20
2023-03-16T09:48:03.079Z,4.70
2023-03-16T09:49:03.012Z,4.50
2023-03-16T09:50:02.936Z,6.30
2023-03-16T09:51:23.935Z,8.10
2023-03-16T09:52:02.845Z,4.70
2023-03-16T09:53:02.764Z,4.60
2023-03-16T09:54:02.699Z,7.30
2023-03-16T09:55:02.626Z,5.80
2023-03-16T09:56:02.607Z,4.20
2023-03-16T09:57:02.527Z,4.10
2023-03-16T09:58:02.430Z,7.40
2023-03-16T09:59:02.454Z,4.50
2023-03-16T10:00:02.537Z,5.20
2023-03-16T10:01:02.313Z,5.10
2023-03-16T10:02:02.228Z,5.10
2023-03-16T10:03:02.219Z,4.80
2023-03-16T10:04:02.117Z,4.80
2023-03-16T10:05:02.009Z,8.90
2023-03-16T10:06:01.983Z,5.80
2023-03-16T10:07:01.881Z,4.20
2023-03-16T10:08:01.997Z,4.50
2023-03-16T10:09:01.763Z,4.40
2023-03-16T10:10:01.701Z,7.10
2023-03-16T10:11:01.678Z,4.70
2023-03-16T10:12:01.573Z,5.40
2023-03-16T10:13:01.509Z,5.10
2023-03-16T10:14:01.448Z,7.30
2023-03-16T10:15:01.366Z,4.50
2023-03-16T10:16:01.630Z,4.80
2023-03-16T10:17:01.260Z,5.20
2023-03-16T10:18:01.277Z,4.90
2023-03-16T10:19:01.155Z,5.90
2023-03-16T10:20:01.096Z,5.00
2023-03-16T10:21:01.030Z,5.10
2023-03-16T10:22:00.938Z,5.30
2023-03-16T10:23:00.906Z,5.60
2023-03-16T10:24:00.799Z,5.70
2023-03-16T10:25:00.777Z,4.60
2023-03-16T10:26:00.678Z,6.60
2023-03-16T10:27:24.408Z,5.70
2023-03-16T10:28:02.640Z,4.70
2023-03-16T10:29:08.120Z,5.20
2023-03-16T10:30:04.723Z,5.10
2023-03-16T10:31:04.722Z,5.70
2023-03-16T10:32:02.001Z,5.40
2023-03-16T10:33:01.645Z,9.20
2023-03-16T10:34:00.214Z,5.70
2023-03-16T10:35:00.148Z,9.20
2023-03-16T10:36:00.121Z,5.50
2023-03-16T10:37:00.036Z,5.40
2023-03-16T10:37:59.917Z,7.10
2023-03-16T10:38:59.935Z,5.70
2023-03-16T10:39:59.844Z,5.60
2023-03-16T10:40:59.749Z,5.40
2023-03-16T10:41:59.720Z,5.00
2023-03-16T10:42:59.602Z,5.50
2023-03-16T10:43:59.537Z,5.40
2023-03-16T10:45:20.517Z,5.70
2023-03-16T10:45:59.505Z,6.30
2023-03-16T10:46:59.435Z,7.00
2023-03-16T10:47:59.318Z,5.20
2023-03-16T10:48:59.290Z,5.30
2023-03-16T10:49:59.192Z,5.80
2023-03-16T10:50:59.169Z,5.30
2023-03-16T10:51:59.081Z,5.50
2023-03-16T10:52:59.399Z,5.60
2023-03-16T10:53:58.952Z,5.30
2023-03-16T10:54:58.856Z,5.90
2023-03-16T10:55:58.832Z,5.70
2023-03-16T10:56:58.753Z,5.00
2023-03-16T10:57:58.713Z,5.30
2023-03-16T10:58:58.634Z,9.50
2023-03-16T10:59:58.547Z,5.40
2023-03-16T11:00:58.544Z,5.10
2023-03-16T11:01:58.513Z,5.90
2023-03-16T11:03:21.815Z,5.90
2023-03-16T11:03:58.320Z,5.50
2023-03-16T11:04:58.361Z,5.70
2023-03-16T11:05:58.172Z,4.70
2023-03-16T11:06:58.125Z,6.80
2023-03-16T11:07:58.054Z,5.30
2023-03-16T11:08:57.997Z,5.60
2023-03-16T11:09:57.950Z,5.30
2023-03-16T11:10:57.931Z,5.50
2023-03-16T11:11:57.878Z,5.80
2023-03-16T11:13:01.345Z,5.60
2023-03-16T11:13:57.702Z,5.70
2023-03-16T11:14:57.666Z,5.20
2023-03-16T11:15:57.596Z,5.20
2023-03-16T11:16:57.589Z,5.70
2023-03-16T11:17:57.454Z,5.80
2023-03-16T11:18:57.422Z,5.60
2023-03-16T11:19:57.298Z,6.00
2023-03-16T11:21:18.273Z,5.40
2023-03-16T11:21:57.212Z,6.80
2023-03-16T11:22:57.140Z,7.40
2023-03-16T11:23:57.085Z,5.60
2023-03-16T11:24:57.125Z,5.90
2023-03-16T11:25:56.958Z,5.40
2023-03-16T11:26:57.004Z,5.60
2023-03-16T11:27:56.935Z,5.90
2023-03-16T11:28:56.972Z,8.00
2023-03-16T11:29:56.739Z,6.20
2023-03-16T11:30:56.717Z,5.70
2023-03-16T11:31:56.573Z,5.80
2023-03-16T11:32:56.564Z,5.80
2023-03-16T11:33:56.477Z,5.50
2023-03-16T11:34:56.389Z,5.50
2023-03-16T11:35:59.339Z,5.10
2023-03-16T11:36:56.279Z,5.00
2023-03-16T11:37:56.237Z,4.90
2023-03-16T11:39:17.210Z,5.00
2023-03-16T11:39:56.104Z,5.50
2023-03-16T11:40:56.080Z,6.80
2023-03-16T11:41:55.954Z,5.30
2023-03-16T11:42:56.119Z,7.10
2023-03-16T11:43:55.857Z,12.80
2023-03-16T11:44:55.795Z,5.10
2023-03-16T11:45:56.077Z,10.50
2023-03-16T11:46:55.646Z,5.10
2023-03-16T11:47:55.577Z,5.10
2023-03-16T11:48:55.495Z,5.20
2023-03-16T11:49:55.431Z,4.90
2023-03-16T11:50:55.405Z,4.90
2023-03-16T11:51:55.345Z,5.20
2023-03-16T11:52:56.691Z,4.60
2023-03-16T11:53:57.423Z,5.10
2023-03-16T11:54:56.621Z,4.40
2023-03-16T11:55:55.071Z,4.60
2023-03-16T11:57:15.966Z,4.70
2023-03-16T11:57:54.954Z,5.20
2023-03-16T11:58:54.888Z,4.50
2023-03-16T12:00:01.085Z,5.10
2023-03-16T12:00:54.797Z,4.80
2023-03-16T12:02:00.848Z,4.50
2023-03-16T12:02:54.793Z,5.00
2023-03-16T12:03:54.577Z,5.90
2023-03-16T12:04:54.507Z,4.30
2023-03-16T12:05:54.418Z,4.60
2023-03-16T12:06:54.357Z,6.60
2023-03-16T12:07:54.438Z,5.30
2023-03-16T12:08:54.379Z,5.10
2023-03-16T12:09:54.222Z,4.80
2023-03-16T12:10:54.132Z,4.80
2023-03-16T12:11:54.066Z,4.80
2023-03-16T12:12:53.971Z,4.70
2023-03-16T12:13:53.936Z,4.20
2023-03-16T12:14:53.930Z,4.30
2023-03-16T12:15:53.893Z,7.50
2023-03-16T12:16:53.778Z,4.50
2023-03-16T12:17:53.691Z,4.70
2023-03-16T12:18:53.598Z,5.00
2023-03-16T12:19:53.568Z,4.90
2023-03-16T12:20:53.498Z,4.50
2023-03-16T12:21:53.415Z,6.70
2023-03-16T12:22:53.372Z,5.00
2023-03-16T12:23:53.419Z,4.50
2023-03-16T12:24:53.240Z,5.10
2023-03-16T12:25:53.185Z,4.60
2023-03-16T12:26:53.183Z,8.40
2023-03-16T12:27:53.085Z,5.00
2023-03-16T12:28:53.036Z,4.30
2023-03-16T12:29:52.902Z,4.70
2023-03-16T12:30:52.906Z,4.40
2023-03-16T12:31:53.066Z,5.10
2023-03-16T12:32:52.838Z,4.30
2023-03-16T12:33:52.685Z,5.20
2023-03-16T12:34:52.656Z,4.80
2023-03-16T12:35:52.599Z,4.80
2023-03-16T12:36:52.507Z,5.70
2023-03-16T12:37:52.442Z,7.80
2023-03-16T12:38:52.414Z,9.40
2023-03-16T12:39:52.700Z,4.50
2023-03-16T12:40:52.422Z,6.70
2023-03-16T12:41:52.218Z,5.10
2023-03-16T12:42:52.111Z,4.80
2023-03-16T12:43:52.135Z,5.40
2023-03-16T12:44:51.977Z,4.70
2023-03-16T12:45:51.949Z,4.20
2023-03-16T12:46:51.905Z,4.80
2023-03-16T12:47:51.957Z,4.40
2023-03-16T12:48:52.660Z,5.10
2023-03-16T12:49:51.864Z,6.70
2023-03-16T12:50:52.708Z,4.80
2023-03-16T12:51:51.549Z,5.20
2023-03-16T12:52:51.490Z,5.00
2023-03-16T12:53:51.424Z,3.90
2023-03-16T12:54:51.993Z,5.00
2023-03-16T12:55:51.327Z,4.60
2023-03-16T12:56:51.496Z,4.00
2023-03-16T12:57:51.237Z,4.30
2023-03-16T12:58:51.095Z,4.90
2023-03-16T12:59:51.906Z,4.30
2023-03-16T13:00:50.969Z,4.60
2023-03-16T13:01:50.965Z,4.10
2023-03-16T13:02:50.854Z,5.10
2023-03-16T13:03:50.892Z,8.30
2023-03-16T13:04:51.946Z,4.00
2023-03-16T13:05:51.265Z,16.80
2023-03-16T13:06:50.661Z,4.10
2023-03-16T13:07:50.574Z,4.70
2023-03-16T13:08:50.477Z,4.50
2023-03-16T13:09:50.430Z,4.70
2023-03-16T13:10:50.400Z,4.50
2023-03-16T13:11:50.380Z,4.40
2023-03-16T13:12:50.260Z,3.80